Time;durP1;ratioP1;P1;durP2;ratioP2;P2;SDS_P1;SDS_P2;PMS_P1;PMS_P2;Temp;Humidity;BMP_temperature;BMP_pressure;BME280_temperature;BME280_humidity;BME280_pressure;Samples;Min_cycle;Max_cycle;Signal;HPM_P1;HPM_P2
2022/04/09 18:40:16;;;;;;;3.13;1.05;;;;;;;14.38;42.44;97539.31;5105883;27;1393336;-81
2022/04/09 18:42:41;;;;;;;9.05;1.23;;;;;;;14.37;41.67;97513.53;5128008;28;20039;-81
2022/04/09 18:45:07;;;;;;;1.58;0.60;;;;;;;14.43;44.43;97522.69;5130932;28;20114;-81
2022/04/09 18:47:36;;;;;;;7.13;0.77;;;;;;;14.15;43.35;97488.28;5129295;27;20490;-81
2022/04/09 18:50:03;;;;;;;2.88;0.80;;;;;;;14.33;43.62;97534.44;5129730;28;20048;-81
2022/04/09 18:52:29;;;;;;;1.02;0.60;;;;;;;14.18;43.68;97506.75;5129630;28;20114;-83
2022/04/09 18:54:54;;;;;;;8.40;1.45;;;;;;;14.18;44.87;97515.06;5130100;28;20067;-81
2022/04/09 18:57:19;;;;;;;1.42;1.00;;;;;;;14.08;44.06;97516.50;5129484;28;20045;-82
2022/04/09 18:59:45;;;;;;;1.20;0.68;;;;;;;14.04;44.51;97500.06;5129673;28;20019;-81
2022/04/09 19:02:11;;;;;;;1.10;0.93;;;;;;;14.18;44.59;97543.63;5129325;28;20024;-81
2022/04/09 19:04:36;;;;;;;5.45;1.35;;;;;;;14.26;42.17;97528.06;5127345;28;20505;-82
2022/04/09 19:07:02;;;;;;;4.88;1.33;;;;;;;14.51;40.81;97557.13;5125586;28;20031;-82
2022/04/09 19:09:29;;;;;;;6.55;2.80;;;;;;;14.56;41.71;97531.41;5127850;28;20057;-82
2022/04/09 19:11:54;;;;;;;3.60;1.00;;;;;;;14.32;41.27;97497.56;5129300;28;20479;-82
2022/04/09 19:14:20;;;;;;;1.58;0.80;;;;;;;14.41;40.93;97493.84;5129244;28;20110;-82
2022/04/09 19:16:46;;;;;;;0.90;0.85;;;;;;;14.72;41.46;97541.13;5124519;28;20399;-82
2022/04/09 19:19:11;;;;;;;13.43;2.38;;;;;;;14.44;42.34;97504.75;5109009;28;20070;-82
2022/04/09 19:21:37;;;;;;;2.20;1.02;;;;;;;14.28;41.98;97481.09;5116397;28;20470;-82
2022/04/09 19:24:02;;;;;;;2.35;0.80;;;;;;;14.49;42.55;97540.19;5130414;28;20023;-82
2022/04/09 19:26:30;;;;;;;0.80;0.80;;;;;;;14.24;42.67;97541.66;5100448;28;20028;-83
2022/04/09 19:28:55;;;;;;;2.70;1.10;;;;;;;14.20;43.57;97534.81;5103920;28;20056;-83
2022/04/09 19:31:21;;;;;;;1.00;0.80;;;;;;;14.18;43.08;97542.84;5097170;28;20040;-81
2022/04/09 19:33:47;;;;;;;1.02;0.90;;;;;;;13.91;42.59;97510.00;5089195;28;20033;-82
2022/04/09 19:36:14;;;;;;;3.78;1.63;;;;;;;13.63;46.37;97479.88;5089269;28;20034;-83
2022/04/09 19:38:40;;;;;;;2.20;1.17;;;;;;;13.59;45.78;97506.31;5120298;28;20058;-81
2022/04/09 19:41:06;;;;;;;0.70;0.70;;;;;;;13.12;46.99;97440.88;5087878;28;20116;-80
2022/04/09 19:43:31;;;;;;;1.20;0.98;;;;;;;13.56;48.05;97540.63;5087693;28;20484;-80
2022/04/09 19:45:58;;;;;;;1.85;1.23;;;;;;;13.51;47.97;97536.50;5072592;28;20119;-81
2022/04/09 19:48:23;;;;;;;5.25;1.67;;;;;;;13.50;49.32;97545.31;5088027;28;20403;-82
2022/04/09 19:50:49;;;;;;;4.53;1.90;;;;;;;13.51;49.09;97549.59;5091478;28;20036;-82
2022/04/09 19:53:14;;;;;;;1.42;1.00;;;;;;;13.14;49.40;97507.75;5094474;28;20031;-82
2022/04/09 19:55:43;;;;;;;2.13;1.33;;;;;;;13.27;50.67;97531.13;5094455;28;20500;-81
2022/04/09 19:58:09;;;;;;;0.50;0.50;;;;;;;12.88;52.42;97480.63;5094931;28;20040;-81
2022/04/09 20:00:34;;;;;;;1.70;0.63;;;;;;;12.64;52.70;97446.75;5094052;28;20391;-83
2022/04/09 20:03:00;;;;;;;4.97;1.55;;;;;;;13.19;51.45;97540.34;5090709;28;20032;-82
2022/04/09 20:05:26;;;;;;;1.67;0.70;;;;;;;13.11;51.76;97512.22;5092294;28;20040;-82
2022/04/09 20:07:52;;;;;;;4.30;1.95;;;;;;;13.31;51.40;97540.03;5076553;28;20037;-81
2022/04/09 20:10:19;;;;;;;1.63;0.80;;;;;;;13.37;50.05;97531.78;5103682;28;20024;-82
2022/04/09 20:12:46;;;;;;;0.93;0.75;;;;;;;12.69;52.67;97437.75;5093877;28;20036;-82
2022/04/09 20:15:13;;;;;;;1.33;1.20;;;;;;;13.16;53.60;97549.63;5094375;28;20053;-83
2022/04/09 20:17:38;;;;;;;5.10;1.25;;;;;;;12.96;52.21;97506.69;5094663;28;20057;-81
2022/04/09 20:20:05;;;;;;;1.10;0.88;;;;;;;13.35;51.93;97551.69;5093550;28;20107;-82
2022/04/09 20:22:32;;;;;;;1.90;1.73;;;;;;;13.29;49.84;97491.81;5082413;28;20032;-81
2022/04/09 20:24:57;;;;;;;5.18;1.27;;;;;;;13.84;48.63;97542.47;5088445;28;20114;-82
2022/04/09 20:27:23;;;;;;;1.65;1.35;;;;;;;13.89;47.28;97518.03;5083823;28;20123;-82
2022/04/09 20:29:48;;;;;;;5.20;1.08;;;;;;;14.29;47.79;97562.41;5078940;28;20526;-82
2022/04/09 20:32:15;;;;;;;2.60;1.10;;;;;;;14.35;47.21;97551.34;5093592;28;20128;-81
2022/04/09 20:34:40;;;;;;;1.38;1.13;;;;;;;14.13;47.03;97524.88;5094597;28;20028;-81
2022/04/09 20:37:05;;;;;;;4.30;2.05;;;;;;;14.20;46.58;97527.25;5093563;28;20039;-82
2022/04/09 20:39:31;;;;;;;2.65;1.13;;;;;;;14.27;47.45;97549.03;5093315;28;20518;-82
2022/04/09 20:41:57;;;;;;;1.92;0.82;;;;;;;14.31;47.75;97545.28;5091478;28;20024;-82
2022/04/09 20:44:22;;;;;;;5.35;1.58;;;;;;;14.19;46.90;97524.94;5093145;28;20536;-83
2022/04/09 20:46:48;;;;;;;2.55;1.30;;;;;;;14.31;46.42;97545.28;5092735;28;20026;-81
2022/04/09 20:49:14;;;;;;;1.58;0.70;;;;;;;14.22;47.68;97527.53;5093173;28;20119;-83
2022/04/09 20:51:40;;;;;;;1.75;1.10;;;;;;;14.49;46.16;97548.50;5092577;28;20032;-82
2022/04/09 20:54:06;;;;;;;2.25;1.00;;;;;;;14.71;45.90;97555.56;5092967;28;20063;-81
2022/04/09 20:56:35;;;;;;;5.80;1.27;;;;;;;14.77;45.65;97559.16;5093576;28;20028;-81
2022/04/09 20:59:01;;;;;;;1.70;1.50;;;;;;;15.20;44.34;97557.19;5093362;28;20060;-82
2022/04/09 21:01:26;;;;;;;7.20;1.65;;;;;;;15.12;43.83;97536.66;5092638;28;20380;-81
2022/04/09 21:03:53;;;;;;;1.65;1.30;;;;;;;15.00;43.83;97500.44;5092832;28;20034;-81
2022/04/09 21:06:19;;;;;;;1.27;1.17;;;;;;;15.42;44.90;97549.00;5093481;28;20039;-81
2022/04/09 21:08:44;;;;;;;1.02;0.88;;;;;;;15.02;46.06;97542.41;5094235;28;20024;-81
2022/04/09 21:11:10;;;;;;;3.35;1.75;;;;;;;15.49;45.16;97559.69;5093669;28;20024;-81
2022/04/09 21:13:35;;;;;;;2.42;1.17;;;;;;;15.12;45.19;97512.38;5076952;28;20126;-82
2022/04/09 21:16:05;;;;;;;3.22;1.20;;;;;;;15.45;44.44;97529.28;5072696;28;20431;-81
2022/04/09 21:18:31;;;;;;;1.67;1.17;;;;;;;15.94;44.43;97568.28;5069525;28;20488;-84
2022/04/09 21:20:57;;;;;;;1.45;0.75;;;;;;;15.95;44.19;97558.66;5091255;28;20031;-83
2022/04/09 21:23:22;;;;;;;4.50;0.77;;;;;;;15.29;44.86;97574.47;5092761;28;20035;-83
2022/04/09 21:25:49;;;;;;;5.68;1.00;;;;;;;15.43;44.05;97537.34;5092360;28;20407;-80
2022/04/09 21:28:14;;;;;;;0.68;0.60;;;;;;;15.91;42.79;97578.41;5089595;28;20106;-82
2022/04/09 21:30:40;;;;;;;3.40;1.60;;;;;;;16.35;41.60;97569.44;5093105;28;20030;-82
2022/04/09 21:33:06;;;;;;;3.72;1.00;;;;;;;15.20;44.10;97527.34;5092785;28;20024;-82
2022/04/09 21:35:31;;;;;;;3.15;1.33;;;;;;;15.81;43.70;97563.91;5092803;28;20058;-82
2022/04/09 21:37:57;;;;;;;2.15;0.95;;;;;;;16.06;43.56;97559.47;5092846;28;20449;-82
2022/04/09 21:40:22;;;;;;;5.63;1.35;;;;;;;16.36;41.84;97575.75;5092008;28;20135;-80
2022/04/09 21:42:48;;;;;;;5.47;1.38;;;;;;;16.54;41.03;97575.31;5092466;28;20056;-80
2022/04/09 21:45:13;;;;;;;1.80;1.15;;;;;;;17.05;40.36;97583.25;5092419;28;20035;-81
2022/04/09 21:47:39;;;;;;;5.97;1.08;;;;;;;16.71;40.33;97590.06;5080186;28;20041;-80
2022/04/09 21:50:05;;;;;;;2.50;0.73;;;;;;;16.35;40.83;97566.63;5072004;28;20020;-81
2022/04/09 21:52:31;;;;;;;4.97;1.17;;;;;;;17.17;39.14;97594.44;5072099;28;20115;-80
2022/04/09 21:54:56;;;;;;;1.00;0.75;;;;;;;16.88;39.14;97525.91;5071842;28;20064;-80
2022/04/09 21:57:22;;;;;;;2.47;1.10;;;;;;;17.42;38.97;97579.44;5071942;28;20060;-80
2022/04/09 21:59:48;;;;;;;2.88;1.08;;;;;;;17.60;38.72;97597.69;5071708;28;20032;-81
2022/04/09 22:02:13;;;;;;;1.38;1.23;;;;;;;17.41;39.38;97580.69;5071955;28;20115;-81
2022/04/09 22:04:40;;;;;;;2.30;1.00;;;;;;;17.64;39.74;97598.97;5088682;28;20090;-81
2022/04/09 22:07:06;;;;;;;1.60;0.98;;;;;;;17.47;39.18;97612.94;5073073;28;20484;-81
2022/04/09 22:09:32;;;;;;;2.53;1.00;;;;;;;17.34;39.21;97567.25;5071851;28;20031;-81
2022/04/09 22:11:57;;;;;;;7.13;1.10;;;;;;;17.36;40.35;97598.97;5071799;28;20028;-81
2022/04/09 22:14:24;;;;;;;2.85;1.30;;;;;;;16.67;40.30;97617.44;5071925;28;20060;-81
2022/04/09 22:16:49;;;;;;;2.75;1.30;;;;;;;16.13;40.38;97595.22;5071662;28;20036;-81
2022/04/09 22:19:16;;;;;;;2.50;0.95;;;;;;;16.93;39.75;97615.22;5071680;28;20033;-81
2022/04/09 22:21:42;;;;;;;3.35;1.20;;;;;;;17.07;39.43;97625.38;5088445;28;20418;-80
2022/04/09 22:24:08;;;;;;;5.32;1.70;;;;;;;16.61;39.48;97572.81;5071629;28;20032;-80
2022/04/09 22:26:33;;;;;;;10.15;1.67;;;;;;;17.11;39.24;97618.78;5071311;28;20029;-81
2022/04/09 22:28:58;;;;;;;2.60;1.85;;;;;;;17.02;39.34;97609.38;5071489;28;20519;-79
2022/04/09 22:31:24;;;;;;;2.17;1.02;;;;;;;16.81;38.67;97548.75;5082546;28;20028;-80
2022/04/09 22:33:50;;;;;;;1.30;1.20;;;;;;;17.26;37.67;97605.31;5071830;28;20032;-80
2022/04/09 22:36:15;;;;;;;3.65;1.35;;;;;;;17.38;38.07;97590.09;5071675;28;20365;-80
2022/04/09 22:38:41;;;;;;;1.20;0.93;;;;;;;17.25;38.15;97571.06;5070895;28;20392;-80
2022/04/09 22:41:07;;;;;;;1.88;1.25;;;;;;;17.12;38.74;97595.19;5072656;28;20028;-80
2022/04/09 22:43:33;;;;;;;3.00;1.80;;;;;;;17.17;38.91;97552.56;5071236;28;20123;-80
2022/04/09 22:45:59;;;;;;;1.20;0.80;;;;;;;17.19;38.80;97592.63;5071659;28;20028;-80
2022/04/09 22:48:24;;;;;;;2.17;0.73;;;;;;;17.27;39.10;97587.31;5071891;28;20472;-80
2022/04/09 22:50:50;;;;;;;0.98;0.70;;;;;;;17.53;38.50;97601.00;5079888;28;20067;-79
2022/04/09 22:53:16;;;;;;;2.45;2.10;;;;;;;17.43;38.48;97564.19;5091334;28;20024;-80
2022/04/09 22:55:44;;;;;;;1.77;0.98;;;;;;;17.83;38.38;97591.56;5091767;28;20036;-80
2022/04/09 22:58:12;;;;;;;1.17;1.08;;;;;;;17.53;39.07;97584.25;5090394;28;20035;-80
2022/04/09 23:00:38;;;;;;;1.83;1.05;;;;;;;17.65;37.76;97585.75;5071561;28;20095;-80
2022/04/09 23:03:03;;;;;;;2.38;0.95;;;;;;;17.69;37.66;97584.22;5071305;28;20029;-80
2022/04/09 23:05:29;;;;;;;8.80;1.90;;;;;;;17.88;36.98;97587.22;5071149;28;20025;-80
2022/04/09 23:07:55;;;;;;;5.50;1.05;;;;;;;17.21;41.25;97567.00;5071180;28;20033;-80
2022/04/09 23:10:20;;;;;;;3.08;1.50;;;;;;;16.74;42.04;97566.75;5071280;28;20111;-80
2022/04/09 23:12:47;;;;;;;1.58;1.30;;;;;;;16.49;42.35;97539.81;5071098;28;20029;-79
2022/04/09 23:15:14;;;;;;;2.00;0.85;;;;;;;16.60;42.18;97562.16;5070820;28;20044;-80
2022/04/09 23:17:39;;;;;;;2.40;0.85;;;;;;;16.61;42.74;97560.91;5071062;28;20123;-80
2022/04/09 23:20:05;;;;;;;2.42;1.23;;;;;;;16.37;42.88;97547.38;5070850;28;20162;-79
2022/04/09 23:22:31;;;;;;;3.17;1.50;;;;;;;16.30;42.31;97545.09;5072354;28;20060;-80
2022/04/09 23:24:56;;;;;;;2.15;0.95;;;;;;;16.67;41.93;97550.50;5071184;28;20121;-80
2022/04/09 23:27:22;;;;;;;3.67;1.40;;;;;;;16.76;41.14;97547.47;5074089;28;20040;-80
2022/04/09 23:29:47;;;;;;;1.10;1.00;;;;;;;16.66;41.38;97551.78;5084698;28;20024;-80
2022/04/09 23:32:13;;;;;;;5.43;1.30;;;;;;;16.69;41.73;97564.72;5078180;28;20032;-80
2022/04/09 23:34:38;;;;;;;0.95;0.88;;;;;;;16.49;42.02;97553.75;5075015;28;20029;-79
2022/04/09 23:37:04;;;;;;;1.05;1.05;;;;;;;16.53;42.10;97565.41;5091772;28;20430;-80
2022/04/09 23:39:30;;;;;;;3.20;1.77;;;;;;;16.31;42.88;97554.97;5075834;28;20048;-80
2022/04/09 23:41:55;;;;;;;1.95;0.80;;;;;;;16.40;43.33;97553.97;5074254;28;20032;-80
2022/04/09 23:44:24;;;;;;;0.77;0.63;;;;;;;16.44;43.68;97535.00;5074341;28;20477;-80
2022/04/09 23:46:49;;;;;;;0.75;0.70;;;;;;;16.51;44.62;97542.88;5074237;28;20123;-80
2022/04/09 23:49:15;;;;;;;1.58;0.85;;;;;;;16.28;44.90;97533.66;5074304;28;20490;-80
2022/04/09 23:51:40;;;;;;;5.28;0.73;;;;;;;16.33;44.81;97532.94;5074195;28;20051;-79
2022/04/09 23:54:06;;;;;;;2.97;1.15;;;;;;;16.01;44.75;97517.66;5074174;28;20035;-80
2022/04/09 23:56:32;;;;;;;2.47;1.00;;;;;;;16.16;44.43;97535.66;5074611;28;20110;-82
2022/04/09 23:58:57;;;;;;;3.30;0.88;;;;;;;16.40;44.10;97538.00;5074463;28;20025;-82
